Pacaembu, Brazil
Current Conditions -  °F | °C
As of 8:00 AM on Friday 31 Oct 2014 (Local Time) from SBDN Reporting Station
Clear Clear  
Wind Chill: 73°   Ceiling: Unl
Heat Index: 73°   Visibility: 6mi
Dew Point: 66°   Wind: 7mph
Humidity: 78%   Direction: 60°ENE
Pressure: 29.88"   Gusts: NA
Location:  21.56°S, 51.26°W
Report Text: SBDN 311000Z 06006KT CAVOK 23/19 Q1012
Loading
Personal Weather Stations






























Interactive Weather Map
Tropical Storm Tracking
New forecast layout! Learn more

10-Day Weather Forecast

Advertisements
Track Severe Weather on mobile